Time;durP1;ratioP1;P1;durP2;ratioP2;P2;SDS_P1;SDS_P2;PMS_P1;PMS_P2;Temp;Humidity;BMP_temperature;BMP_pressure;BME280_temperature;BME280_humidity;BME280_pressure;Samples;Min_cycle;Max_cycle;Signal;HPM_P1;HPM_P2
2022/12/31 04:00:40;;;;;;;0.30;0.30;;;13.20;53.90;;;;;;5991845;23;45791;-60
2022/12/31 04:03:06;;;;;;;0.30;0.30;;;13.20;54.00;;;;;;4874777;28;45266;-62
2022/12/31 04:05:32;;;;;;;0.30;0.30;;;13.20;53.90;;;;;;4885950;28;45311;-61
2022/12/31 04:07:58;;;;;;;0.22;0.20;;;13.20;53.90;;;;;;4895450;28;45131;-62
2022/12/31 04:10:23;;;;;;;0.40;0.40;;;13.30;53.90;;;;;;4892501;28;45042;-61
2022/12/31 04:12:49;;;;;;;0.90;0.25;;;13.30;53.90;;;;;;4893333;28;44973;-60
2022/12/31 04:15:18;;;;;;;0.20;0.20;;;13.20;54.50;;;;;;4893189;28;45672;-61
2022/12/31 04:17:44;;;;;;;0.30;0.30;;;13.20;53.90;;;;;;4896037;28;45333;-60
2022/12/31 04:20:10;;;;;;;0.68;0.50;;;13.30;53.90;;;;;;4875192;29;44995;-61
2022/12/31 04:22:36;;;;;;;0.20;0.20;;;13.30;53.90;;;;;;4891022;28;45420;-61
2022/12/31 04:25:01;;;;;;;1.30;0.20;;;13.30;53.80;;;;;;4879119;28;45266;-60
2022/12/31 04:27:27;;;;;;;0.45;0.30;;;13.30;53.80;;;;;;4890442;28;45277;-60
2022/12/31 04:29:52;;;;;;;0.30;0.30;;;13.30;53.90;;;;;;4877852;28;45559;-60
2022/12/31 04:32:18;;;;;;;0.20;0.20;;;13.30;53.90;;;;;;4890976;28;45309;-62
2022/12/31 04:34:43;;;;;;;0.30;0.30;;;13.30;53.90;;;;;;4892077;28;44824;-63
2022/12/31 04:37:12;;;;;;;0.35;0.32;;;13.30;53.80;;;;;;4898709;28;46339;-61
2022/12/31 04:39:37;;;;;;;0.40;0.40;;;13.30;53.80;;;;;;4897052;28;45563;-60
2022/12/31 04:42:03;;;;;;;0.40;0.30;;;13.30;53.80;;;;;;4891541;28;44941;-62
2022/12/31 04:44:28;;;;;;;0.43;0.30;;;13.30;53.80;;;;;;4894081;28;45234;-61
2022/12/31 04:46:54;;;;;;;0.47;0.38;;;13.30;53.80;;;;;;4891005;28;45288;-62
2022/12/31 04:49:19;;;;;;;0.20;0.20;;;13.30;53.80;;;;;;4887612;28;45517;-61
2022/12/31 04:51:45;;;;;;;0.25;0.25;;;13.40;53.80;;;;;;4897462;28;45413;-61
2022/12/31 04:54:10;;;;;;;0.20;0.20;;;13.30;53.80;;;;;;4892297;28;44641;-62
2022/12/31 04:56:36;;;;;;;0.20;0.20;;;13.30;53.80;;;;;;4894762;28;44769;-62
2022/12/31 04:59:03;;;;;;;0.30;0.30;;;13.30;53.80;;;;;;4888151;28;45566;-61
2022/12/31 05:01:28;;;;;;;0.28;0.28;;;13.30;53.90;;;;;;4895951;28;45008;-60
2022/12/31 05:03:54;;;;;;;0.40;0.30;;;13.30;53.90;;;;;;4894914;28;44764;-62
2022/12/31 05:06:20;;;;;;;0.63;0.30;;;13.30;53.90;;;;;;4890850;28;45384;-58
2022/12/31 05:08:46;;;;;;;0.20;0.20;;;13.30;53.90;;;;;;4893420;28;45172;-58
2022/12/31 05:11:12;;;;;;;0.40;0.30;;;13.30;53.90;;;;;;4894411;28;45051;-61
2022/12/31 05:13:38;;;;;;;0.40;0.40;;;13.30;53.90;;;;;;4889494;28;45280;-60
2022/12/31 05:16:03;;;;;;;0.30;0.30;;;13.30;53.80;;;;;;4888370;28;45803;-61
2022/12/31 05:18:29;;;;;;;0.30;0.30;;;13.30;53.90;;;;;;4893653;28;45641;-61
2022/12/31 05:20:55;;;;;;;0.28;0.28;;;13.30;53.90;;;;;;4875209;28;44677;-59
2022/12/31 05:23:20;;;;;;;0.45;0.20;;;13.30;53.90;;;;;;4904168;28;45216;-59
2022/12/31 05:25:46;;;;;;;0.20;0.20;;;13.30;53.90;;;;;;4894645;28;44775;-61
2022/12/31 05:28:12;;;;;;;0.30;0.30;;;13.30;53.80;;;;;;4888928;28;45158;-59
2022/12/31 05:30:37;;;;;;;0.28;0.28;;;13.30;53.80;;;;;;4888030;28;45425;-59
2022/12/31 05:33:03;;;;;;;0.30;0.30;;;13.30;53.90;;;;;;4896531;28;45290;-60
2022/12/31 05:35:29;;;;;;;0.20;0.20;;;13.30;53.90;;;;;;4898022;28;45094;-59
2022/12/31 05:37:54;;;;;;;0.30;0.30;;;13.30;53.90;;;;;;4891291;28;46412;-57
2022/12/31 05:40:20;;;;;;;0.60;0.38;;;13.30;53.80;;;;;;4896029;28;44990;-60
2022/12/31 05:42:45;;;;;;;0.38;0.20;;;13.30;53.80;;;;;;4891276;28;44696;-62
2022/12/31 05:45:14;;;;;;;0.70;0.30;;;13.30;54.40;;;;;;4878542;29;44768;-61
2022/12/31 05:47:40;;;;;;;0.40;0.20;;;13.30;53.90;;;;;;4899089;28;45248;-59
2022/12/31 05:50:07;;;;;;;0.30;0.25;;;13.30;53.90;;;;;;4888948;28;45182;-58
2022/12/31 05:52:32;;;;;;;0.20;0.20;;;13.30;53.90;;;;;;4878920;29;45549;-59
2022/12/31 05:54:58;;;;;;;0.30;0.30;;;13.40;53.90;;;;;;4893481;28;45504;-58
2022/12/31 05:57:23;;;;;;;0.50;0.40;;;13.40;54.50;;;;;;4892040;28;46036;-62
2022/12/31 05:59:52;;;;;;;0.20;0.20;;;13.40;53.90;;;;;;4890779;28;45512;-59
2022/12/31 06:02:18;;;;;;;0.30;0.30;;;13.40;53.90;;;;;;4890329;28;45507;-59
2022/12/31 06:04:44;;;;;;;0.13;0.10;;;13.40;53.90;;;;;;4895996;28;45310;-61
2022/12/31 06:07:09;;;;;;;0.20;0.20;;;13.40;53.90;;;;;;4891747;28;46137;-59
2022/12/31 06:09:35;;;;;;;0.20;0.20;;;13.40;53.90;;;;;;4889736;28;45214;-59
2022/12/31 06:12:00;;;;;;;0.28;0.28;;;13.40;53.90;;;;;;4888766;28;45628;-57
2022/12/31 06:14:26;;;;;;;0.30;0.20;;;13.40;53.90;;;;;;4894559;28;45285;-59
2022/12/31 06:16:51;;;;;;;0.30;0.30;;;13.40;53.90;;;;;;4889507;28;46325;-60
2022/12/31 06:19:17;;;;;;;0.22;0.22;;;13.40;53.90;;;;;;4891563;28;44841;-60
2022/12/31 06:21:42;;;;;;;0.30;0.30;;;13.40;53.90;;;;;;4890881;28;45305;-58
2022/12/31 06:24:08;;;;;;;0.22;0.20;;;13.40;53.90;;;;;;4884230;28;45668;-60
2022/12/31 06:26:33;;;;;;;0.20;0.20;;;13.40;53.80;;;;;;4880624;29;46179;-60
2022/12/31 06:28:59;;;;;;;0.28;0.20;;;13.40;53.90;;;;;;4894025;28;45600;-59
2022/12/31 06:31:25;;;;;;;0.20;0.20;;;13.40;53.90;;;;;;4894766;28;45555;-58
2022/12/31 06:33:50;;;;;;;0.28;0.28;;;13.40;53.90;;;;;;4887612;28;45201;-62
2022/12/31 06:36:16;;;;;;;0.35;0.28;;;13.40;53.90;;;;;;4895591;28;46149;-57
2022/12/31 06:38:42;;;;;;;0.20;0.20;;;13.40;53.90;;;;;;4895533;28;45620;-60
2022/12/31 06:41:09;;;;;;;0.28;0.28;;;13.40;53.80;;;;;;4885326;28;45285;-59
2022/12/31 06:43:34;;;;;;;0.40;0.30;;;13.40;53.90;;;;;;4887808;28;45824;-59
2022/12/31 06:46:04;;;;;;;0.30;0.30;;;13.40;53.80;;;;;;4896024;28;46100;-60
2022/12/31 06:48:29;;;;;;;0.32;0.30;;;13.40;53.90;;;;;;4895934;28;45198;-60
2022/12/31 06:50:55;;;;;;;0.22;0.20;;;13.40;53.90;;;;;;4885548;28;44669;-58
2022/12/31 06:53:20;;;;;;;0.15;0.13;;;13.40;53.90;;;;;;4886734;28;45061;-61
2022/12/31 06:55:49;;;;;;;0.30;0.30;;;13.40;53.90;;;;;;4892237;28;46965;-60
2022/12/31 06:58:15;;;;;;;0.20;0.20;;;13.40;53.90;;;;;;4884371;28;45276;-59
2022/12/31 07:01:03;;;;;;;0.20;0.20;;;13.40;53.90;;;;;;4897042;28;45520;-61
2022/12/31 07:03:29;;;;;;;0.40;0.30;;;13.40;53.90;;;;;;4891391;28;45449;-61
2022/12/31 07:05:57;;;;;;;0.25;0.17;;;13.40;53.90;;;;;;4890108;28;46856;-60
2022/12/31 07:08:35;;;;;;;0.28;0.28;;;13.40;53.90;;;;;;4888692;28;45103;-61
2022/12/31 07:11:21;;;;;;;0.30;0.28;;;13.40;53.90;;;;;;4893600;28;44948;-59
2022/12/31 07:13:54;;;;;;;0.32;0.32;;;13.40;53.90;;;;;;4889464;28;45241;-60
2022/12/31 07:16:27;;;;;;;0.25;0.20;;;13.40;53.90;;;;;;4890867;28;45454;-61
2022/12/31 07:19:14;;;;;;;0.20;0.20;;;13.40;53.90;;;;;;4891875;28;45228;-61
2022/12/31 07:21:40;;;;;;;0.20;0.20;;;13.40;53.90;;;;;;4893165;28;44972;-61
2022/12/31 07:24:07;;;;;;;0.43;0.20;;;13.40;53.90;;;;;;4891151;28;45225;-59
2022/12/31 07:27:19;;;;;;;0.20;0.20;;;13.40;53.90;;;;;;4889052;28;46863;-61
2022/12/31 07:30:09;;;;;;;0.20;0.20;;;13.40;53.90;;;;;;4879864;28;45307;-61
2022/12/31 07:33:06;;;;;;;0.20;0.20;;;13.40;54.00;;;;;;4869309;29;45582;-60
2022/12/31 07:35:53;;;;;;;0.25;0.25;;;13.40;54.00;;;;;;4889029;28;44866;-63
2022/12/31 07:38:48;;;;;;;0.30;0.30;;;13.40;54.00;;;;;;4888843;28;45134;-61
2022/12/31 07:41:35;;;;;;;0.28;0.20;;;13.40;54.10;;;;;;4888054;28;45505;-60
2022/12/31 07:44:32;;;;;;;0.20;0.20;;;13.40;54.00;;;;;;4891325;28;45278;-59
2022/12/31 07:46:59;;;;;;;0.20;0.20;;;13.40;54.00;;;;;;4892324;28;45274;-60
2022/12/31 07:49:25;;;;;;;0.30;0.30;;;13.40;54.00;;;;;;4897291;28;45060;-60
2022/12/31 07:51:51;;;;;;;0.43;0.20;;;13.40;54.00;;;;;;4896932;28;45168;-58
2022/12/31 07:54:16;;;;;;;0.30;0.30;;;13.40;54.00;;;;;;4910181;28;45640;-58
2022/12/31 07:56:42;;;;;;;0.20;0.20;;;13.40;53.90;;;;;;4890919;28;45660;-59
2022/12/31 07:59:26;;;;;;;0.13;0.13;;;13.40;53.90;;;;;;4874494;28;45916;-60
2022/12/31 08:01:55;;;;;;;0.10;0.10;;;13.50;53.90;;;;;;4888706;28;45378;-60
2022/12/31 08:04:31;;;;;;;0.20;0.20;;;13.50;54.10;;;;;;4885423;28;44734;-61
2022/12/31 08:07:19;;;;;;;0.30;0.30;;;13.50;54.00;;;;;;4891853;28;45682;-60
2022/12/31 08:10:17;;;;;;;0.17;0.17;;;13.50;53.90;;;;;;4904455;28;45532;-60
2022/12/31 08:12:42;;;;;;;0.10;0.10;;;13.50;53.90;;;;;;4896203;28;45259;-59
2022/12/31 08:15:16;;;;;;;0.38;0.35;;;13.50;53.90;;;;;;4878032;28;45113;-60
2022/12/31 08:17:42;;;;;;;0.10;0.10;;;13.50;53.90;;;;;;4889804;28;45557;-60
2022/12/31 08:20:12;;;;;;;0.30;0.30;;;13.50;53.90;;;;;;4889782;28;45538;-60
2022/12/31 08:22:59;;;;;;;0.20;0.20;;;13.50;53.90;;;;;;4894614;28;45511;-60
2022/12/31 08:25:32;;;;;;;0.50;0.20;;;13.50;53.90;;;;;;4889348;28;45575;-59
2022/12/31 08:28:19;;;;;;;0.17;0.17;;;13.50;53.90;;;;;;4872801;28;45409;-60
2022/12/31 08:31:07;;;;;;;0.20;0.20;;;13.50;53.90;;;;;;4892661;28;45053;-59
2022/12/31 08:33:56;;;;;;;0.30;0.30;;;13.50;53.90;;;;;;4884180;28;44949;-59
2022/12/31 08:36:28;;;;;;;0.25;0.25;;;13.50;54.00;;;;;;4888068;28;45083;-59
2022/12/31 08:39:09;;;;;;;0.20;0.20;;;13.50;53.80;;;;;;4891332;28;44751;-61
2022/12/31 08:41:40;;;;;;;0.30;0.30;;;13.60;53.80;;;;;;4889516;28;45201;-60
2022/12/31 08:44:12;;;;;;;0.20;0.20;;;13.60;53.80;;;;;;4895425;28;46009;-61
2022/12/31 08:46:43;;;;;;;0.30;0.30;;;13.60;53.80;;;;;;4893917;28;45734;-59
2022/12/31 08:49:09;;;;;;;0.20;0.20;;;13.60;53.80;;;;;;4892553;28;45026;-61
2022/12/31 08:51:35;;;;;;;0.20;0.20;;;13.60;53.90;;;;;;4888054;28;46352;-60
2022/12/31 08:54:01;;;;;;;0.20;0.20;;;13.60;53.90;;;;;;4874702;28;45215;-61
2022/12/31 08:56:39;;;;;;;0.20;0.20;;;13.60;53.90;;;;;;4898463;28;44834;-60
2022/12/31 08:59:14;;;;;;;0.30;0.30;;;13.60;54.00;;;;;;4879372;28;45524;-61
2022/12/31 09:02:06;;;;;;;0.30;0.30;;;13.60;54.00;;;;;;4889987;28;46089;-58
2022/12/31 09:04:46;;;;;;;0.20;0.20;;;13.60;53.90;;;;;;4888464;28;44930;-60
2022/12/31 09:07:11;;;;;;;0.20;0.20;;;13.60;54.00;;;;;;4894805;28;45298;-62
2022/12/31 09:09:47;;;;;;;0.85;0.28;;;13.60;53.90;;;;;;4877481;29;45221;-61
2022/12/31 09:12:27;;;;;;;0.20;0.20;;;13.60;54.00;;;;;;4893673;28;45336;-61
2022/12/31 09:15:19;;;;;;;0.10;0.10;;;13.60;54.00;;;;;;4880835;28;45462;-59
2022/12/31 09:17:50;;;;;;;0.30;0.30;;;13.60;54.00;;;;;;4875913;28;44744;-61
2022/12/31 09:20:29;;;;;;;0.40;0.28;;;13.60;54.00;;;;;;4897706;28;45251;-60
2022/12/31 09:22:55;;;;;;;0.15;0.15;;;13.60;54.10;;;;;;4899073;28;45159;-59
2022/12/31 09:25:21;;;;;;;0.38;0.25;;;13.60;54.00;;;;;;4872329;29;45208;-60
2022/12/31 09:28:15;;;;;;;0.20;0.20;;;13.60;54.00;;;;;;4897670;28;46059;-66
2022/12/31 09:30:52;;;;;;;;;;;13.60;54.00;;;;;;4895758;28;45597;-60
2022/12/31 09:33:45;;;;;;;0.30;0.30;;;13.60;54.10;;;;;;4884018;28;45405;-59
2022/12/31 09:36:37;;;;;;;0.20;0.20;;;13.60;54.10;;;;;;4875443;28;44922;-59
2022/12/31 09:39:14;;;;;;;0.30;0.20;;;13.60;54.10;;;;;;4890244;28;45406;-60
2022/12/31 09:42:01;;;;;;;0.22;0.22;;;13.60;54.00;;;;;;4893461;28;45273;-61
2022/12/31 09:45:10;;;;;;;0.20;0.20;;;13.60;54.00;;;;;;4893493;28;45050;-61
2022/12/31 09:47:55;;;;;;;0.22;0.22;;;13.60;54.10;;;;;;4890067;28;45633;-61
2022/12/31 09:50:47;;;;;;;0.50;0.20;;;13.60;54.10;;;;;;4881221;28;45480;-59
2022/12/31 09:53:17;;;;;;;0.13;0.13;;;13.60;54.20;;;;;;4895814;28;46032;-61
2022/12/31 09:56:02;;;;;;;0.10;0.10;;;13.60;54.20;;;;;;4892877;28;46615;-61
2022/12/31 09:58:43;;;;;;;0.30;0.20;;;13.60;54.30;;;;;;4891210;28;45345;-60
2022/12/31 10:01:36;;;;;;;0.20;0.20;;;13.60;54.90;;;;;;4886006;28;45568;-61
2022/12/31 10:04:21;;;;;;;0.33;0.27;;;13.60;54.30;;;;;;4872616;28;45387;-65
2022/12/31 10:07:11;;;;;;;0.17;0.17;;;13.60;54.30;;;;;;4889458;28;45300;-62
2022/12/31 10:10:16;;;;;;;0.17;0.17;;;13.60;54.30;;;;;;4887777;28;45520;-62
2022/12/31 10:12:54;;;;;;;0.17;0.10;;;13.60;54.30;;;;;;4888200;28;45075;-60
2022/12/31 10:15:29;;;;;;;0.22;0.22;;;13.60;54.30;;;;;;4871356;28;45542;-62
2022/12/31 10:18:16;;;;;;;0.25;0.17;;;13.60;54.20;;;;;;4885987;28;46977;-60
2022/12/31 10:21:19;;;;;;;0.28;0.20;;;13.60;54.30;;;;;;4887614;28;45377;-57
2022/12/31 10:23:56;;;;;;;0.20;0.17;;;13.60;54.30;;;;;;4889895;28;44970;-61
2022/12/31 10:26:28;;;;;;;0.15;0.15;;;13.60;54.30;;;;;;4886027;28;44733;-61
2022/12/31 10:28:55;;;;;;;0.20;0.20;;;13.70;54.30;;;;;;4889797;28;46367;-60
2022/12/31 10:31:55;;;;;;;0.38;0.30;;;13.70;54.30;;;;;;4887928;28;44916;-59
2022/12/31 10:34:40;;;;;;;0.20;0.20;;;13.70;54.40;;;;;;4890824;28;45370;-61
2022/12/31 10:37:13;;;;;;;0.52;0.20;;;13.70;54.40;;;;;;4890699;28;44739;-58
2022/12/31 10:40:24;;;;;;;0.28;0.20;;;13.70;54.30;;;;;;4865430;29;45238;-62
2022/12/31 10:43:11;;;;;;;0.20;0.20;;;13.70;54.40;;;;;;4851022;29;45977;-57
2022/12/31 10:46:08;;;;;;;0.20;0.20;;;13.70;55.00;;;;;;4887346;28;45368;-58
2022/12/31 10:49:01;;;;;;;0.13;0.10;;;13.70;54.30;;;;;;4869919;29;45483;-60
2022/12/31 10:51:46;;;;;;;0.20;0.20;;;13.70;54.30;;;;;;4891557;28;44987;-60
2022/12/31 10:54:17;;;;;;;0.20;0.20;;;13.70;54.40;;;;;;4889917;28;45214;-61
2022/12/31 10:57:06;;;;;;;0.43;0.22;;;13.70;54.40;;;;;;4889940;28;45431;-60
2022/12/31 10:59:40;;;;;;;0.40;0.20;;;13.70;54.40;;;;;;4891186;28;44836;-59
2022/12/31 11:02:35;;;;;;;0.35;0.35;;;13.70;54.30;;;;;;4891149;28;46661;-60
2022/12/31 11:05:07;;;;;;;0.20;0.20;;;13.80;54.40;;;;;;4887840;28;45268;-58
2022/12/31 11:07:45;;;;;;;0.40;0.30;;;13.80;54.40;;;;;;4890885;28;46490;-59
2022/12/31 11:10:29;;;;;;;0.10;0.10;;;13.70;54.30;;;;;;4890336;28;45048;-61
2022/12/31 11:13:31;;;;;;;0.40;0.20;;;13.80;54.40;;;;;;4891107;28;45870;-59
2022/12/31 11:16:02;;;;;;;0.10;0.10;;;13.70;54.30;;;;;;4891721;28;46369;-60
2022/12/31 11:19:02;;;;;;;0.20;0.20;;;13.70;54.40;;;;;;4891781;28;45199;-58
2022/12/31 11:21:44;;;;;;;0.30;0.20;;;13.80;54.40;;;;;;4879253;28;45387;-61
2022/12/31 11:24:35;;;;;;;2.28;0.20;;;13.80;54.40;;;;;;4889343;28;45242;-61
2022/12/31 11:27:15;;;;;;;0.20;0.20;;;13.80;54.40;;;;;;4885183;28;45382;-63
2022/12/31 11:30:09;;;;;;;0.25;0.25;;;13.80;54.50;;;;;;4874897;28;45282;-61
2022/12/31 11:32:56;;;;;;;0.20;0.20;;;13.80;54.50;;;;;;4873962;28;45750;-62
2022/12/31 11:35:30;;;;;;;0.20;0.20;;;13.80;54.40;;;;;;4891315;28;46074;-61
2022/12/31 11:38:29;;;;;;;0.30;0.30;;;13.80;54.30;;;;;;4887143;28;46158;-59
2022/12/31 11:41:12;;;;;;;0.20;0.20;;;13.80;54.40;;;;;;4866855;29;45243;-61
2022/12/31 11:43:47;;;;;;;0.20;0.20;;;13.90;54.40;;;;;;4871459;28;44769;-61
2022/12/31 11:46:37;;;;;;;0.10;0.10;;;13.90;54.40;;;;;;4888853;28;46099;-61
2022/12/31 11:49:32;;;;;;;0.20;0.20;;;13.90;54.40;;;;;;4888480;28;45184;-62
2022/12/31 11:52:25;;;;;;;0.10;0.10;;;13.90;54.30;;;;;;4885007;28;45461;-60
2022/12/31 11:55:15;;;;;;;0.17;0.17;;;13.90;54.50;;;;;;4891913;28;45298;-61
2022/12/31 11:57:43;;;;;;;0.20;0.20;;;13.80;54.40;;;;;;4888974;28;47898;-61
2022/12/31 12:00:19;;;;;;;0.20;0.20;;;13.80;54.30;;;;;;4875660;28;45408;-61
2022/12/31 12:02:46;;;;;;;0.10;0.10;;;13.90;54.30;;;;;;4890182;28;45475;-62
2022/12/31 12:05:16;;;;;;;0.60;0.20;;;13.90;54.40;;;;;;4873272;28;45492;-61
2022/12/31 12:07:42;;;;;;;0.20;0.10;;;13.90;54.40;;;;;;4882533;28;47009;-61
2022/12/31 12:10:29;;;;;;;0.20;0.10;;;13.90;54.40;;;;;;4860190;28;45548;-61
2022/12/31 12:12:56;;;;;;;0.30;0.30;;;13.90;54.40;;;;;;4893122;28;45151;-61
2022/12/31 12:15:29;;;;;;;0.20;0.17;;;13.90;54.40;;;;;;4888467;28;45769;-62
2022/12/31 12:17:57;;;;;;;0.10;0.10;;;13.90;54.40;;;;;;4886824;28;46034;-62
2022/12/31 12:20:34;;;;;;;0.22;0.20;;;13.90;54.40;;;;;;4878393;28;45184;-63
2022/12/31 12:23:01;;;;;;;0.20;0.20;;;13.90;54.50;;;;;;4889373;28;45419;-61
2022/12/31 12:25:36;;;;;;;0.10;0.10;;;14.00;54.40;;;;;;4887749;28;45041;-60
2022/12/31 12:28:22;;;;;;;0.38;0.30;;;14.00;54.30;;;;;;4888947;28;45404;-62
2022/12/31 12:31:02;;;;;;;0.20;0.20;;;14.00;54.40;;;;;;4891786;28;45368;-61
2022/12/31 12:33:28;;;;;;;0.30;0.20;;;14.00;54.40;;;;;;4890449;28;45331;-61
2022/12/31 12:36:08;;;;;;;0.20;0.20;;;14.00;54.30;;;;;;4877565;29;45543;-61
2022/12/31 12:38:34;;;;;;;0.10;0.10;;;14.00;54.80;;;;;;4874702;29;45288;-60
2022/12/31 12:41:01;;;;;;;0.30;0.20;;;14.00;54.20;;;;;;4894600;28;45594;-60
2022/12/31 12:43:29;;;;;;;0.20;0.20;;;14.00;54.30;;;;;;4873522;28;45253;-60
2022/12/31 12:46:03;;;;;;;0.60;0.20;;;14.00;54.90;;;;;;4891198;28;45338;-60
2022/12/31 12:48:40;;;;;;;0.25;0.25;;;14.00;54.30;;;;;;4887832;28;45371;-61
2022/12/31 12:51:14;;;;;;;0.22;0.10;;;14.00;54.30;;;;;;4887150;28;45457;-61
2022/12/31 12:54:11;;;;;;;0.20;0.20;;;14.00;54.80;;;;;;4893028;28;45350;-60
2022/12/31 12:57:06;;;;;;;0.10;0.10;;;14.10;54.30;;;;;;4891516;28;45281;-61
2022/12/31 13:00:12;;;;;;;0.10;0.10;;;14.10;54.30;;;;;;4890546;28;45308;-61
2022/12/31 13:02:56;;;;;;;0.10;0.10;;;14.10;54.20;;;;;;4889484;28;45321;-62
2022/12/31 13:05:28;;;;;;;0.15;0.15;;;14.10;54.20;;;;;;4896977;28;45298;-62
2022/12/31 13:08:18;;;;;;;0.30;0.20;;;14.00;54.20;;;;;;4905859;28;45433;-61
2022/12/31 13:10:58;;;;;;;0.28;0.22;;;14.10;54.30;;;;;;4890064;28;45248;-62
2022/12/31 13:13:48;;;;;;;0.20;0.20;;;14.10;54.30;;;;;;4891244;28;45320;-61
2022/12/31 13:16:41;;;;;;;0.20;0.20;;;14.10;54.20;;;;;;4874627;28;46077;-62
2022/12/31 13:19:18;;;;;;;0.20;0.20;;;14.10;54.20;;;;;;4894741;28;45010;-62
2022/12/31 13:22:03;;;;;;;0.20;0.20;;;14.10;54.20;;;;;;4891969;28;45263;-60
2022/12/31 13:24:42;;;;;;;0.17;0.17;;;14.10;54.30;;;;;;4887206;28;45231;-62
2022/12/31 13:27:13;;;;;;;0.40;0.10;;;14.10;54.20;;;;;;4872229;28;46100;-62
2022/12/31 13:29:39;;;;;;;0.25;0.20;;;14.10;54.20;;;;;;4896205;28;45162;-62
2022/12/31 13:32:06;;;;;;;0.10;0.10;;;14.10;54.20;;;;;;4878910;29;46215;-62
2022/12/31 13:34:34;;;;;;;0.30;0.30;;;14.10;54.30;;;;;;4879672;29;45219;-61
2022/12/31 13:37:03;;;;;;;0.17;0.17;;;14.10;54.20;;;;;;4878032;29;46319;-60
2022/12/31 13:39:30;;;;;;;0.20;0.20;;;14.10;54.20;;;;;;4865781;28;45293;-61
2022/12/31 13:42:20;;;;;;;0.10;0.10;;;14.10;54.20;;;;;;4879291;29;46191;-60
2022/12/31 13:44:49;;;;;;;0.20;0.10;;;14.20;54.30;;;;;;4881430;29;45618;-60
2022/12/31 13:47:22;;;;;;;0.20;0.20;;;14.20;54.20;;;;;;4892152;28;44621;-60
2022/12/31 13:49:53;;;;;;;0.15;0.15;;;14.20;54.20;;;;;;4892335;28;45540;-61
2022/12/31 13:52:40;;;;;;;0.13;0.13;;;14.10;54.20;;;;;;4890501;28;46158;-62
2022/12/31 13:55:12;;;;;;;0.20;0.20;;;14.20;54.30;;;;;;4872943;29;45304;-62
2022/12/31 13:57:42;;;;;;;0.20;0.20;;;14.20;54.30;;;;;;4889900;28;45320;-62
2022/12/31 14:00:19;;;;;;;0.10;0.10;;;14.20;54.20;;;;;;4893913;28;46555;-64
2022/12/31 14:02:51;;;;;;;0.20;0.17;;;14.20;54.30;;;;;;4902362;28;46391;-61
2022/12/31 14:05:21;;;;;;;0.20;0.10;;;14.20;54.20;;;;;;4879781;28;45211;-62
2022/12/31 14:07:55;;;;;;;0.17;0.17;;;14.20;54.20;;;;;;4891054;28;46060;-61
2022/12/31 14:10:27;;;;;;;0.22;0.20;;;14.20;54.10;;;;;;4874220;28;45484;-61
2022/12/31 14:12:58;;;;;;;0.20;0.20;;;14.20;54.20;;;;;;4891655;28;46228;-62
2022/12/31 14:15:32;;;;;;;0.20;0.20;;;14.20;54.20;;;;;;4880252;28;45240;-61
2022/12/31 14:18:05;;;;;;;0.17;0.17;;;14.20;54.10;;;;;;4889433;28;44993;-60
2022/12/31 14:20:33;;;;;;;0.13;0.13;;;14.20;54.20;;;;;;4890751;28;45547;-61
2022/12/31 14:23:08;;;;;;;0.30;0.20;;;14.20;54.10;;;;;;4890167;28;46791;-61
2022/12/31 14:25:37;;;;;;;0.20;0.20;;;14.20;54.20;;;;;;4880822;28;45094;-61
2022/12/31 14:28:03;;;;;;;0.22;0.20;;;14.20;54.20;;;;;;4889473;28;45200;-60
2022/12/31 14:30:32;;;;;;;0.30;0.22;;;14.20;54.10;;;;;;4885634;28;46672;-60
2022/12/31 14:33:16;;;;;;;0.10;0.10;;;14.20;54.20;;;;;;4862674;29;46018;-59
2022/12/31 14:35:55;;;;;;;0.40;0.20;;;14.20;54.20;;;;;;4882258;28;46535;-60
2022/12/31 14:38:33;;;;;;;0.10;0.10;;;14.30;54.30;;;;;;4894137;28;45268;-59
2022/12/31 14:41:04;;;;;;;0.10;0.10;;;14.20;54.20;;;;;;4894369;28;45192;-61
2022/12/31 14:43:48;;;;;;;0.38;0.20;;;14.30;54.20;;;;;;4897782;28;45293;-60
2022/12/31 14:46:51;;;;;;;0.20;0.20;;;14.30;54.20;;;;;;4895415;28;45337;-61
2022/12/31 14:49:24;;;;;;;0.17;0.17;;;14.30;54.30;;;;;;4893797;28;44601;-62
2022/12/31 14:51:50;;;;;;;;;;;14.20;54.20;;;;;;4895024;28;45706;-60
2022/12/31 14:54:27;;;;;;;0.30;0.20;;;14.30;54.40;;;;;;4891554;28;45370;-59
2022/12/31 14:56:52;;;;;;;0.20;0.17;;;14.30;54.30;;;;;;4879508;28;44680;-60
2022/12/31 14:59:29;;;;;;;0.20;0.20;;;14.30;54.20;;;;;;4902634;28;45433;-63
2022/12/31 15:01:55;;;;;;;0.10;0.10;;;14.30;54.30;;;;;;4887812;28;45085;-60
2022/12/31 15:04:47;;;;;;;0.10;0.10;;;14.30;54.30;;;;;;4887482;28;46141;-62
2022/12/31 15:07:23;;;;;;;0.20;0.15;;;14.30;54.30;;;;;;4887327;28;45406;-61
2022/12/31 15:10:03;;;;;;;0.15;0.15;;;14.30;54.30;;;;;;4892363;28;45533;-61
2022/12/31 15:12:59;;;;;;;0.20;0.20;;;14.30;54.30;;;;;;4887370;28;45323;-61
2022/12/31 15:15:33;;;;;;;0.20;0.20;;;14.30;54.30;;;;;;4875616;28;45445;-60
2022/12/31 15:18:17;;;;;;;0.20;0.20;;;14.30;54.30;;;;;;4872441;29;45486;-62
2022/12/31 15:20:51;;;;;;;0.10;0.10;;;14.30;54.30;;;;;;4893412;28;45303;-59
2022/12/31 15:23:29;;;;;;;0.40;0.30;;;14.30;54.30;;;;;;4886804;28;45035;-59
2022/12/31 15:25:58;;;;;;;0.20;0.20;;;14.30;54.30;;;;;;4888576;28;45623;-61
2022/12/31 15:28:36;;;;;;;0.20;0.20;;;14.30;54.30;;;;;;4880032;28;45888;-61
2022/12/31 15:31:10;;;;;;;0.38;0.17;;;14.30;54.30;;;;;;4872375;29;45195;-61
2022/12/31 15:33:38;;;;;;;0.20;0.20;;;14.30;54.30;;;;;;4889676;28;44734;-61
2022/12/31 15:36:17;;;;;;;0.20;0.20;;;14.30;54.40;;;;;;4886463;28;45321;-60
2022/12/31 15:38:42;;;;;;;0.10;0.10;;;14.30;54.40;;;;;;4888981;28;45472;-61
2022/12/31 15:41:18;;;;;;;0.10;0.10;;;14.30;54.40;;;;;;4891153;28;45409;-59
2022/12/31 15:44:32;;;;;;;0.20;0.17;;;14.30;54.40;;;;;;4889211;28;45389;-61
2022/12/31 15:47:22;;;;;;;0.13;0.13;;;14.30;54.40;;;;;;4871523;28;47845;-60
2022/12/31 15:49:47;;;;;;;0.20;0.20;;;14.30;54.40;;;;;;4872833;28;45309;-61
2022/12/31 15:52:24;;;;;;;0.20;0.20;;;14.30;54.30;;;;;;4886381;28;45450;-62
2022/12/31 15:54:51;;;;;;;0.20;0.20;;;14.30;54.40;;;;;;4886986;28;45321;-60
2022/12/31 15:57:18;;;;;;;0.20;0.10;;;14.30;54.40;;;;;;4885121;28;45212;-60
2022/12/31 15:59:44;;;;;;;0.20;0.20;;;14.30;54.40;;;;;;4884932;28;45514;-61
2022/12/31 16:02:23;;;;;;;0.10;0.10;;;14.30;54.40;;;;;;4877118;29;45529;-59
2022/12/31 16:04:49;;;;;;;0.15;0.10;;;14.30;54.50;;;;;;4870886;29;45550;-60
2022/12/31 16:07:14;;;;;;;0.88;0.20;;;14.30;54.50;;;;;;4884927;28;45565;-60
2022/12/31 16:09:40;;;;;;;0.22;0.20;;;14.30;54.50;;;;;;4885075;28;45037;-60
2022/12/31 16:12:14;;;;;;;0.20;0.20;;;14.30;54.50;;;;;;4884455;28;45422;-61
2022/12/31 16:14:44;;;;;;;0.30;0.30;;;14.30;54.50;;;;;;4861279;29;44959;-61
2022/12/31 16:17:31;;;;;;;0.20;0.20;;;14.30;54.50;;;;;;4859489;29;45815;-62
2022/12/31 16:19:57;;;;;;;0.20;0.20;;;14.30;54.50;;;;;;4870191;29;44741;-62
2022/12/31 16:22:43;;;;;;;0.22;0.22;;;14.30;54.50;;;;;;4885876;28;45795;-61
2022/12/31 16:25:17;;;;;;;0.30;0.20;;;14.40;54.60;;;;;;4887710;28;45543;-60
2022/12/31 16:27:42;;;;;;;0.20;0.20;;;14.30;54.50;;;;;;4877637;29;45264;-61
2022/12/31 16:30:17;;;;;;;0.25;0.25;;;14.30;54.50;;;;;;4880275;29;44912;-61
2022/12/31 16:32:45;;;;;;;0.10;0.10;;;14.30;54.50;;;;;;4888460;28;45588;-62
2022/12/31 16:35:25;;;;;;;0.20;0.10;;;14.30;54.50;;;;;;4890566;28;46090;-61
2022/12/31 16:38:11;;;;;;;0.13;0.13;;;14.30;54.50;;;;;;4891766;28;46221;-58
2022/12/31 16:40:37;;;;;;;0.13;0.13;;;14.30;54.50;;;;;;4886331;28;44770;-61
2022/12/31 16:43:03;;;;;;;0.10;0.10;;;14.40;54.50;;;;;;4892362;28;45490;-60
2022/12/31 16:45:35;;;;;;;0.20;0.20;;;14.30;54.50;;;;;;4892067;28;45466;-61
2022/12/31 16:48:11;;;;;;;0.20;0.20;;;14.30;54.50;;;;;;4897100;28;45194;-61
2022/12/31 16:50:36;;;;;;;0.10;0.10;;;14.40;54.50;;;;;;4863582;28;44946;-62
2022/12/31 16:53:04;;;;;;;0.70;0.13;;;14.30;54.50;;;;;;4899748;28;45647;-61
2022/12/31 16:55:30;;;;;;;0.20;0.20;;;14.30;54.60;;;;;;4891859;28;45332;-60
2022/12/31 16:58:01;;;;;;;0.93;0.15;;;14.30;54.50;;;;;;4897250;28;45869;-61
2022/12/31 17:00:27;;;;;;;0.17;0.13;;;14.30;54.60;;;;;;4893772;28;45189;-61
2022/12/31 17:03:18;;;;;;;0.15;0.10;;;14.30;54.70;;;;;;4881687;29;45644;-60
2022/12/31 17:06:05;;;;;;;0.20;0.20;;;14.30;54.70;;;;;;4895181;28;45391;-60
2022/12/31 17:08:54;;;;;;;0.10;0.10;;;14.30;54.60;;;;;;4894587;28;45606;-62
2022/12/31 17:11:43;;;;;;;0.13;0.13;;;14.30;54.70;;;;;;4896151;28;45801;-60
2022/12/31 17:14:12;;;;;;;0.32;0.20;;;14.30;54.70;;;;;;4894931;28;45033;-62
2022/12/31 17:16:57;;;;;;;0.25;0.20;;;14.30;54.70;;;;;;4892676;28;44949;-61
2022/12/31 17:19:44;;;;;;;0.20;0.20;;;14.30;54.70;;;;;;4898324;28;45839;-62
2022/12/31 17:22:25;;;;;;;0.10;0.10;;;14.30;54.70;;;;;;4875508;29;45270;-61
2022/12/31 17:24:50;;;;;;;0.20;0.20;;;14.30;54.70;;;;;;4891523;28;45553;-61
2022/12/31 17:27:16;;;;;;;0.15;0.15;;;14.30;54.70;;;;;;4889595;28;45306;-61
2022/12/31 17:29:43;;;;;;;0.28;0.22;;;14.30;54.70;;;;;;4891006;28;46425;-59